Aviation Digital Data Service (ADDS)

Output produced by METARs form (1525 UTC 22 April 2021)
found at http://aviationweather.gov/metar/data/
 
Forecast for: ETMN (NORDHOLZ (GER-NA, DE)
Text: TAF ETMN 221300Z 2214/2223 32015G25KT 9999 NSW SCT022
Forecast period: 1400 to 2300 UTC 22 April 2021
Forecast type: FROM: standard forecast or significant change
Winds: from the NW (320 degrees) at 17 MPH (15 knots; 7.7 m/s)
gusting to 29 MPH (25 knots; 12.9 m/s)
Visibility: 6 or more miles (10+ km)
Ceiling: at least 12,000 feet AGL
Clouds: scattered clouds at 2200 feet AGL
Weather: NSW  (no significant weather)
Text: TEMPO 2214/2218 33020G30KT 9999 NSW SCT022
Forecast period: 1400 to 1800 UTC 22 April 2021
Forecast type: TEMPORARY: The following changes expected for less than half the time period
Winds: from the NNW (330 degrees) at 23 MPH (20 knots; 10.3 m/s)
gusting to 34 MPH (30 knots; 15.4 m/s)
Visibility: 6 or more miles (10+ km)
Ceiling: at least 12,000 feet AGL
Clouds: scattered clouds at 2200 feet AGL
Weather: NSW  (no significant weather)